Time;durP1;ratioP1;P1;durP2;ratioP2;P2;SDS_P1;SDS_P2;PMS_P1;PMS_P2;Temp;Humidity;BMP_temperature;BMP_pressure;BME280_temperature;BME280_humidity;BME280_pressure;Samples;Min_cycle;Max_cycle;Signal;HPM_P1;HPM_P2
2022/04/29 00:01:59;;;;;;;3.55;1.50;;;18.90;41.40;;;;;;5024913;28;20165;-84
2022/04/29 00:04:26;;;;;;;3.75;1.63;;;18.90;41.50;;;;;;5054785;28;20222;-80
2022/04/29 00:06:52;;;;;;;2.63;1.35;;;18.80;41.40;;;;;;5038792;28;20690;-83
2022/04/29 00:09:19;;;;;;;2.25;1.20;;;18.80;41.40;;;;;;5041550;28;20165;-82
2022/04/29 00:11:46;;;;;;;3.42;1.30;;;18.80;41.40;;;;;;5076015;28;20153;-82
2022/04/29 00:14:12;;;;;;;1.48;1.27;;;18.80;41.40;;;;;;5025407;28;20165;-81
2022/04/29 00:16:37;;;;;;;4.38;1.70;;;18.80;41.50;;;;;;5058085;28;20244;-83
2022/04/29 00:19:05;;;;;;;4.50;1.70;;;18.80;41.50;;;;;;5057841;28;20192;-83
2022/04/29 00:21:31;;;;;;;1.98;1.50;;;18.80;41.60;;;;;;5024455;28;20178;-81
2022/04/29 00:23:56;;;;;;;3.15;1.25;;;18.90;41.60;;;;;;5075783;28;20164;-85
2022/04/29 00:26:22;;;;;;;2.17;1.40;;;18.90;41.60;;;;;;5057937;28;20193;-84
2022/04/29 00:28:49;;;;;;;1.75;1.30;;;18.80;41.80;;;;;;5075731;28;20211;-84
2022/04/29 00:31:16;;;;;;;2.33;1.55;;;18.80;41.70;;;;;;5075866;28;20154;-83
2022/04/29 00:33:43;;;;;;;2.40;1.30;;;18.80;41.70;;;;;;5057695;28;20232;-85
2022/04/29 00:36:09;;;;;;;2.15;1.33;;;18.80;41.80;;;;;;5075608;28;20168;-84
2022/04/29 00:38:34;;;;;;;1.70;1.30;;;18.80;41.80;;;;;;5024549;28;20201;-83
2022/04/29 00:41:02;;;;;;;2.78;1.60;;;18.80;41.70;;;;;;5056928;28;20161;-82
2022/04/29 00:43:28;;;;;;;1.90;1.50;;;18.80;41.80;;;;;;5007587;28;20740;-84
2022/04/29 00:45:53;;;;;;;3.17;1.33;;;18.80;41.80;;;;;;5024404;28;20259;-84
2022/04/29 00:48:21;;;;;;;1.52;1.08;;;18.80;41.90;;;;;;5057454;28;20168;-85
2022/04/29 00:50:46;;;;;;;2.92;1.38;;;18.80;41.70;;;;;;5023916;28;20177;-85
2022/04/29 00:53:13;;;;;;;1.55;1.20;;;18.80;41.80;;;;;;5057544;28;20162;-86
2022/04/29 00:55:39;;;;;;;3.22;1.30;;;18.80;41.80;;;;;;5075220;28;20207;-83
2022/04/29 00:58:16;;;;;;;1.88;1.40;;;18.70;41.70;;;;;;5040818;28;20157;-82
2022/04/29 01:00:42;;;;;;;2.47;1.30;;;18.80;41.90;;;;;;5058181;28;20210;-82
2022/04/29 01:03:10;;;;;;;2.17;1.27;;;18.80;41.70;;;;;;5024128;28;20571;-83
2022/04/29 01:05:37;;;;;;;1.95;1.30;;;18.80;41.80;;;;;;5073790;28;20165;-82
2022/04/29 01:08:03;;;;;;;4.82;1.63;;;18.80;41.80;;;;;;5057048;28;20295;-82
2022/04/29 01:10:33;;;;;;;1.48;1.15;;;18.80;41.80;;;;;;5074825;28;20165;-84
2022/04/29 01:13:03;;;;;;;2.65;1.58;;;18.80;41.60;;;;;;5007056;28;20181;-84
2022/04/29 01:15:28;;;;;;;1.85;1.30;;;18.70;41.80;;;;;;5023749;28;20189;-80
2022/04/29 01:18:00;;;;;;;2.92;1.27;;;18.70;41.80;;;;;;5056864;28;20523;-87
2022/04/29 01:20:28;;;;;;;2.42;1.30;;;18.70;41.80;;;;;;5023797;28;20217;-85
2022/04/29 01:22:56;;;;;;;2.47;1.10;;;18.70;41.90;;;;;;5023843;28;20180;-83
2022/04/29 01:25:23;;;;;;;4.15;1.45;;;18.70;41.90;;;;;;5023479;28;20273;-84
2022/04/29 01:27:51;;;;;;;3.17;1.30;;;18.70;41.90;;;;;;5006449;28;20193;-84
2022/04/29 01:30:16;;;;;;;2.38;1.30;;;18.70;42.00;;;;;;5023162;28;20181;-84
2022/04/29 01:32:43;;;;;;;3.17;1.42;;;18.60;41.90;;;;;;5040073;28;20184;-83
2022/04/29 01:35:11;;;;;;;3.72;1.30;;;18.70;42.10;;;;;;5039449;28;20246;-82
2022/04/29 01:37:37;;;;;;;1.50;1.33;;;18.70;42.20;;;;;;5056613;28;20216;-84
2022/04/29 01:40:05;;;;;;;4.40;1.50;;;18.70;42.20;;;;;;5074248;28;20189;-84
2022/04/29 01:42:31;;;;;;;2.42;1.50;;;18.80;42.30;;;;;;5056397;28;20165;-84
2022/04/29 01:44:56;;;;;;;2.95;1.58;;;18.60;42.20;;;;;;5023287;28;20261;-86
2022/04/29 01:47:22;;;;;;;2.97;1.27;;;18.70;42.30;;;;;;5056338;28;20211;-85
2022/04/29 01:49:48;;;;;;;2.78;1.60;;;18.70;42.20;;;;;;5056408;28;20193;-81
2022/04/29 01:52:13;;;;;;;2.70;1.42;;;18.70;42.40;;;;;;5055292;28;20161;-84
2022/04/29 01:54:39;;;;;;;3.08;1.40;;;18.70;42.30;;;;;;5073986;28;20173;-87
2022/04/29 01:57:05;;;;;;;2.10;1.40;;;18.60;42.30;;;;;;5056132;28;20169;-84
2022/04/29 01:59:32;;;;;;;1.85;1.20;;;18.60;42.30;;;;;;5039304;28;20227;-87
2022/04/29 02:02:03;;;;;;;1.95;1.45;;;18.70;42.20;;;;;;5056107;28;20208;-83
2022/04/29 02:04:28;;;;;;;2.75;1.65;;;18.70;42.30;;;;;;5006151;28;20239;-82
2022/04/29 02:06:54;;;;;;;2.40;1.42;;;18.60;42.30;;;;;;5039403;28;20161;-84
2022/04/29 02:09:20;;;;;;;2.50;1.40;;;18.60;42.30;;;;;;5073939;28;20161;-82
2022/04/29 02:14:24;;;;;;;2.08;1.30;;;18.60;42.40;;;;;;5073707;28;20180;-83
2022/04/29 02:16:50;;;;;;;1.75;1.30;;;18.60;42.30;;;;;;5022716;28;20169;-83
2022/04/29 02:19:15;;;;;;;1.98;1.42;;;18.60;43.10;;;;;;5056005;28;20185;-85
2022/04/29 02:21:41;;;;;;;3.55;1.50;;;18.60;42.50;;;;;;5039112;28;20192;-83
2022/04/29 02:24:07;;;;;;;2.42;1.40;;;18.60;42.60;;;;;;5038976;28;20158;-82
2022/04/29 02:26:34;;;;;;;1.73;1.30;;;18.60;42.40;;;;;;5073552;28;20182;-82
2022/04/29 02:29:00;;;;;;;1.38;1.27;;;18.60;42.60;;;;;;5038971;28;20172;-82
2022/04/29 02:31:25;;;;;;;2.05;1.40;;;18.60;42.60;;;;;;5073326;28;20166;-83
2022/04/29 02:33:51;;;;;;;2.13;1.15;;;18.60;42.70;;;;;;5055460;28;20310;-85
2022/04/29 02:36:17;;;;;;;3.42;1.65;;;18.60;42.60;;;;;;5038915;28;20620;-83
2022/04/29 02:38:44;;;;;;;1.98;1.30;;;18.60;42.80;;;;;;5022950;28;20200;-85
2022/04/29 02:41:10;;;;;;;2.22;1.42;;;18.60;42.80;;;;;;5055469;28;20153;-86
2022/04/29 02:43:36;;;;;;;2.08;1.40;;;18.60;42.60;;;;;;5073344;28;20157;-83
2022/04/29 02:46:02;;;;;;;1.50;1.40;;;18.60;42.50;;;;;;5072250;28;20177;-86
2022/04/29 02:48:29;;;;;;;2.53;1.30;;;18.60;42.60;;;;;;5073249;28;20153;-83
2022/04/29 02:50:56;;;;;;;3.13;1.35;;;18.60;42.70;;;;;;5021739;28;20193;-86
2022/04/29 02:53:22;;;;;;;2.42;1.48;;;18.60;42.70;;;;;;5021466;28;20189;-86
2022/04/29 02:55:48;;;;;;;1.55;1.35;;;18.60;42.80;;;;;;5055349;28;20600;-83
2022/04/29 02:58:13;;;;;;;3.40;1.30;;;18.60;42.80;;;;;;5073389;28;20150;-82
2022/04/29 03:00:39;;;;;;;3.35;1.27;;;18.60;43.00;;;;;;5055694;28;20204;-87
2022/04/29 03:03:05;;;;;;;3.35;1.30;;;18.60;42.90;;;;;;5039873;28;20579;-85
2022/04/29 03:05:32;;;;;;;1.60;1.27;;;18.50;42.80;;;;;;5079922;28;20171;-83
2022/04/29 03:07:57;;;;;;;1.50;1.33;;;18.50;42.80;;;;;;5061961;28;20161;-84
2022/04/29 03:10:23;;;;;;;2.33;1.27;;;18.50;42.90;;;;;;5080099;28;20162;-83
2022/04/29 03:12:50;;;;;;;2.17;1.50;;;18.60;42.60;;;;;;5045483;28;20165;-85
2022/04/29 03:15:16;;;;;;;2.45;1.27;;;18.60;43.00;;;;;;5079778;28;20646;-84
2022/04/29 03:20:27;;;;;;;2.67;1.88;;;18.50;42.80;;;;;;5064473;28;20191;-84
2022/04/29 03:22:53;;;;;;;1.80;1.33;;;18.40;42.80;;;;;;5079647;28;20153;-85
2022/04/29 03:25:19;;;;;;;2.15;1.33;;;18.50;42.90;;;;;;5061975;28;20236;-82
2022/04/29 03:27:44;;;;;;;2.05;1.42;;;18.50;42.90;;;;;;5045189;28;20152;-87
2022/04/29 03:30:11;;;;;;;2.67;1.42;;;18.50;42.90;;;;;;5061653;28;20162;-81
2022/04/29 03:32:41;;;;;;;2.70;1.67;;;18.50;43.00;;;;;;5061904;28;20299;-87
2022/04/29 03:35:07;;;;;;;1.38;1.20;;;18.50;43.00;;;;;;4997063;28;20226;-82
2022/04/29 03:37:34;;;;;;;2.25;1.23;;;18.50;42.90;;;;;;5061418;28;20192;-84
2022/04/29 03:40:01;;;;;;;2.55;1.30;;;18.50;42.80;;;;;;5011256;28;20765;-84
2022/04/29 03:42:27;;;;;;;1.23;1.13;;;18.50;42.90;;;;;;5011227;28;20319;-87
2022/04/29 03:44:52;;;;;;;1.63;1.38;;;18.50;43.00;;;;;;5044843;28;20196;-83
2022/04/29 03:47:18;;;;;;;1.52;1.25;;;18.50;43.00;;;;;;5061916;28;20161;-82
2022/04/29 03:49:43;;;;;;;1.98;1.20;;;18.50;42.90;;;;;;5044912;28;20167;-82
2022/04/29 03:52:09;;;;;;;1.95;1.60;;;18.50;43.00;;;;;;5061806;28;20169;-84
2022/04/29 03:54:35;;;;;;;1.85;1.45;;;18.50;43.00;;;;;;5079282;28;20203;-82
2022/04/29 03:57:00;;;;;;;1.90;1.45;;;18.50;43.10;;;;;;5044682;28;20165;-85
2022/04/29 03:59:26;;;;;;;1.23;1.13;;;18.50;43.10;;;;;;5061784;28;20185;-80
2022/04/29 04:01:52;;;;;;;2.15;1.00;;;18.50;43.10;;;;;;5061369;28;20161;-84
2022/04/29 04:04:17;;;;;;;1.63;1.50;;;18.50;43.30;;;;;;5028157;28;20311;-84
2022/04/29 04:06:50;;;;;;;1.83;1.30;;;18.50;43.00;;;;;;5044674;28;20639;-83
2022/04/29 04:09:17;;;;;;;2.53;1.40;;;18.50;43.10;;;;;;5029958;28;20173;-80
2022/04/29 04:11:43;;;;;;;2.72;1.40;;;18.50;43.00;;;;;;5044597;28;20628;-85
2022/04/29 04:14:09;;;;;;;3.55;1.50;;;18.50;43.10;;;;;;5079115;28;20172;-83
2022/04/29 04:16:37;;;;;;;1.20;1.10;;;18.50;42.80;;;;;;5040525;28;20162;-84
2022/04/29 04:19:03;;;;;;;4.97;1.30;;;18.50;43.00;;;;;;5076034;28;20192;-82
2022/04/29 04:21:29;;;;;;;3.47;1.17;;;18.50;43.00;;;;;;5075804;28;20154;-84
2022/04/29 04:23:55;;;;;;;1.35;1.10;;;18.50;43.20;;;;;;5075709;28;20149;-84
2022/04/29 04:26:21;;;;;;;1.90;1.35;;;18.50;43.00;;;;;;5058292;28;20597;-82
2022/04/29 04:28:46;;;;;;;4.07;1.27;;;18.50;43.00;;;;;;5040894;28;20184;-84
2022/04/29 04:31:12;;;;;;;1.42;1.10;;;18.50;42.90;;;;;;5041450;28;20161;-84
2022/04/29 04:33:38;;;;;;;3.20;1.27;;;18.50;42.80;;;;;;5041147;28;20170;-82
2022/04/29 04:36:04;;;;;;;4.60;1.45;;;18.60;42.80;;;;;;5057798;28;20161;-82
2022/04/29 04:38:31;;;;;;;1.23;1.13;;;18.60;42.70;;;;;;5057789;28;20523;-86
2022/04/29 04:40:58;;;;;;;1.88;1.10;;;18.60;42.90;;;;;;5057785;28;20157;-83
2022/04/29 04:43:24;;;;;;;1.60;1.40;;;18.60;42.60;;;;;;5057609;28;20149;-84
2022/04/29 04:45:51;;;;;;;1.48;1.20;;;18.60;42.80;;;;;;5057711;28;20245;-83
2022/04/29 04:48:17;;;;;;;1.65;1.20;;;18.60;42.50;;;;;;5040971;28;20603;-84
2022/04/29 04:50:43;;;;;;;1.83;1.40;;;18.60;42.60;;;;;;5075568;28;20157;-81
2022/04/29 04:53:08;;;;;;;1.73;1.23;;;18.60;42.50;;;;;;5040843;28;20252;-88
2022/04/29 04:55:36;;;;;;;1.08;0.98;;;18.60;42.40;;;;;;5024102;28;20576;-82
2022/04/29 04:58:01;;;;;;;3.22;1.30;;;18.60;42.00;;;;;;5057360;28;20158;-83
2022/04/29 05:00:27;;;;;;;1.40;1.30;;;18.60;42.40;;;;;;5040570;28;20254;-84
2022/04/29 05:02:53;;;;;;;2.00;1.17;;;18.70;42.20;;;;;;5057258;28;20260;-84
2022/04/29 05:05:18;;;;;;;1.55;1.33;;;18.70;42.30;;;;;;5024131;28;20177;-84
2022/04/29 05:07:44;;;;;;;1.10;1.00;;;18.70;42.50;;;;;;5023875;28;20180;-84
2022/04/29 05:10:10;;;;;;;1.70;1.10;;;18.60;42.30;;;;;;5024496;28;20197;-83
2022/04/29 05:12:41;;;;;;;1.92;1.35;;;18.70;42.40;;;;;;5057120;28;20672;-82
2022/04/29 05:15:07;;;;;;;2.45;1.25;;;18.70;42.20;;;;;;5074761;28;20153;-82
2022/04/29 05:17:33;;;;;;;1.20;1.08;;;18.70;42.30;;;;;;5057474;28;20574;-83
2022/04/29 05:19:58;;;;;;;1.65;1.17;;;18.70;41.80;;;;;;5057274;28;20651;-83
2022/04/29 05:22:24;;;;;;;1.05;0.95;;;18.70;41.70;;;;;;5057073;28;20179;-84
2022/04/29 05:24:53;;;;;;;3.00;1.02;;;18.70;41.80;;;;;;5074692;28;20258;-84
2022/04/29 05:27:19;;;;;;;1.80;1.20;;;18.70;41.70;;;;;;5006349;28;20174;-84
2022/04/29 05:29:45;;;;;;;2.05;1.20;;;18.80;41.50;;;;;;5024029;28;20264;-84
2022/04/29 05:32:10;;;;;;;1.05;0.90;;;18.80;41.90;;;;;;5074980;28;20215;-85
2022/04/29 05:34:36;;;;;;;1.20;0.80;;;18.80;41.50;;;;;;5040685;28;20158;-83
2022/04/29 05:37:02;;;;;;;1.33;1.10;;;18.80;41.60;;;;;;5039822;28;20177;-82
2022/04/29 05:44:44;;;;;;;1.13;1.02;;;18.80;41.80;;;;;;5058589;28;20153;-84
2022/04/29 05:47:09;;;;;;;1.42;1.20;;;18.80;41.80;;;;;;5039612;28;20174;-82
2022/04/29 05:49:35;;;;;;;1.00;0.90;;;18.80;41.70;;;;;;5039776;28;20260;-84
2022/04/29 05:52:02;;;;;;;1.25;1.10;;;18.70;41.40;;;;;;5023607;28;20176;-86
2022/04/29 05:54:28;;;;;;;0.90;0.90;;;18.80;41.60;;;;;;5039880;28;20162;-85
2022/04/29 05:56:53;;;;;;;1.77;1.08;;;18.80;41.60;;;;;;5023366;28;20255;-84
2022/04/29 05:59:21;;;;;;;1.17;0.95;;;18.80;41.30;;;;;;5040465;28;20624;-86
2022/04/29 06:01:46;;;;;;;1.77;1.05;;;18.80;41.90;;;;;;5043254;28;20196;-86
2022/04/29 06:04:12;;;;;;;1.60;1.08;;;18.80;41.60;;;;;;5076243;28;20680;-84
2022/04/29 06:06:39;;;;;;;2.00;1.30;;;18.80;41.80;;;;;;5055690;28;20162;-83
2022/04/29 06:09:05;;;;;;;1.27;1.10;;;18.80;42.10;;;;;;5019391;28;20588;-80
2022/04/29 06:11:30;;;;;;;1.73;1.15;;;18.80;42.00;;;;;;5053988;28;20226;-83
2022/04/29 06:13:56;;;;;;;1.25;1.13;;;18.80;42.00;;;;;;5055026;28;20599;-83
2022/04/29 06:16:22;;;;;;;2.08;0.90;;;18.80;41.90;;;;;;5040539;28;20231;-84
2022/04/29 06:18:47;;;;;;;1.08;0.90;;;18.80;41.80;;;;;;5056511;28;20276;-82
2022/04/29 06:21:13;;;;;;;1.13;1.02;;;18.80;41.60;;;;;;5037973;28;20268;-80
2022/04/29 06:23:39;;;;;;;2.20;1.20;;;18.80;41.20;;;;;;5039208;28;20185;-82
2022/04/29 06:26:05;;;;;;;1.70;1.02;;;18.90;41.50;;;;;;5055699;28;20181;-85
2022/04/29 06:28:32;;;;;;;1.38;1.20;;;18.90;41.30;;;;;;5055874;28;20181;-86
2022/04/29 06:30:58;;;;;;;0.93;0.90;;;19.00;41.30;;;;;;5055841;28;20191;-85
2022/04/29 06:33:23;;;;;;;1.23;1.00;;;18.90;41.40;;;;;;5038900;28;20165;-84
2022/04/29 06:35:50;;;;;;;1.80;1.15;;;18.90;41.70;;;;;;5038847;28;20260;-84
2022/04/29 06:38:16;;;;;;;2.05;1.15;;;18.90;42.00;;;;;;5055327;28;20150;-83
2022/04/29 06:40:42;;;;;;;1.20;1.05;;;19.00;42.20;;;;;;5074504;28;20216;-84
2022/04/29 06:43:07;;;;;;;2.30;1.20;;;19.00;42.10;;;;;;5076002;28;20232;-81
2022/04/29 06:45:33;;;;;;;1.30;1.13;;;19.00;42.10;;;;;;5075040;28;20272;-83
2022/04/29 06:47:59;;;;;;;1.58;1.13;;;19.00;41.90;;;;;;5074307;28;20177;-82
2022/04/29 06:50:24;;;;;;;1.73;0.93;;;18.90;42.00;;;;;;5039567;28;20625;-82
2022/04/29 06:52:51;;;;;;;1.52;1.10;;;18.90;41.80;;;;;;5023731;28;20173;-81
2022/04/29 06:55:16;;;;;;;1.33;1.10;;;18.90;41.70;;;;;;5056825;28;20150;-84
2022/04/29 06:57:42;;;;;;;1.95;0.95;;;18.90;41.70;;;;;;5074182;28;20537;-82
2022/04/29 07:00:08;;;;;;;2.45;1.08;;;18.90;41.50;;;;;;5054605;28;20193;-83
2022/04/29 07:02:34;;;;;;;1.10;1.00;;;18.90;41.50;;;;;;5037074;28;20209;-81
2022/04/29 07:05:00;;;;;;;1.17;1.00;;;18.90;41.80;;;;;;5036509;28;20169;-81
2022/04/29 07:07:28;;;;;;;1.48;1.13;;;18.90;41.50;;;;;;5071759;28;20150;-83
2022/04/29 07:09:54;;;;;;;1.42;1.00;;;19.00;41.30;;;;;;5054158;28;20173;-84
2022/04/29 07:12:20;;;;;;;1.05;0.95;;;18.90;41.20;;;;;;5037252;28;20260;-84
2022/04/29 07:14:46;;;;;;;0.82;0.82;;;19.00;41.10;;;;;;5037507;28;20247;-82
2022/04/29 07:17:12;;;;;;;1.00;0.90;;;19.00;41.20;;;;;;5055617;28;20265;-85
2022/04/29 07:19:38;;;;;;;1.75;0.93;;;19.00;41.40;;;;;;5039031;28;20675;-82
2022/04/29 07:22:04;;;;;;;1.17;1.00;;;19.00;41.00;;;;;;5073666;28;20244;-81
2022/04/29 07:24:30;;;;;;;2.22;0.93;;;19.00;41.40;;;;;;5055329;28;20248;-82
2022/04/29 07:26:57;;;;;;;1.52;1.02;;;19.00;41.00;;;;;;5055383;28;20632;-84
2022/04/29 07:29:24;;;;;;;1.00;0.90;;;19.00;40.80;;;;;;5040428;28;20177;-81
2022/04/29 07:31:49;;;;;;;1.35;0.93;;;19.00;41.00;;;;;;5057266;28;20162;-85
2022/04/29 07:34:15;;;;;;;1.10;1.00;;;19.10;41.40;;;;;;5058019;28;20177;-85
2022/04/29 07:42:05;;;;;;;1.35;1.00;;;19.00;41.30;;;;;;5057608;28;20154;-82
2022/04/29 07:44:31;;;;;;;1.20;0.90;;;19.00;41.30;;;;;;5073018;28;20172;-85
2022/04/29 07:46:56;;;;;;;2.65;1.00;;;19.00;41.30;;;;;;5038300;28;20165;-85
2022/04/29 07:49:22;;;;;;;0.90;0.90;;;19.00;41.20;;;;;;5055011;28;20204;-83
2022/04/29 07:51:48;;;;;;;1.88;1.13;;;19.00;40.90;;;;;;5041143;28;20166;-85
2022/04/29 07:54:14;;;;;;;1.13;1.00;;;19.00;41.10;;;;;;5058481;28;20209;-84
2022/04/29 07:56:39;;;;;;;1.55;1.10;;;19.10;40.90;;;;;;5025414;28;20173;-81
2022/04/29 07:59:06;;;;;;;1.38;1.00;;;19.10;40.70;;;;;;5041236;28;20188;-80
2022/04/29 08:01:33;;;;;;;1.30;1.05;;;19.10;40.90;;;;;;5060071;28;20162;-85
2022/04/29 08:03:59;;;;;;;2.08;0.82;;;19.10;40.70;;;;;;5026908;28;20220;-82
2022/04/29 08:06:26;;;;;;;0.75;0.75;;;19.10;40.80;;;;;;5026153;28;20165;-81
2022/04/29 08:08:52;;;;;;;1.10;1.00;;;19.10;40.50;;;;;;5042207;28;20248;-84
2022/04/29 08:11:18;;;;;;;1.63;0.95;;;19.10;41.00;;;;;;5076359;28;20188;-83
2022/04/29 08:13:48;;;;;;;1.10;1.00;;;19.10;40.70;;;;;;5042153;28;20169;-85
2022/04/29 08:16:15;;;;;;;1.15;0.90;;;19.00;40.80;;;;;;5025332;28;20192;-84
2022/04/29 08:19:02;;;;;;;1.38;0.80;;;19.10;40.70;;;;;;5058128;28;20180;-81
2022/04/29 08:21:28;;;;;;;1.10;1.00;;;19.10;40.60;;;;;;5018282;28;20301;-86
2022/04/29 08:23:57;;;;;;;1.38;0.90;;;19.10;40.50;;;;;;5017473;28;20248;-84
2022/04/29 08:26:24;;;;;;;1.33;0.98;;;19.10;40.80;;;;;;5028282;28;20192;-84
2022/04/29 08:28:51;;;;;;;1.20;0.93;;;19.10;40.40;;;;;;5033515;28;20234;-85
2022/04/29 08:31:20;;;;;;;0.88;0.88;;;19.10;40.50;;;;;;5018123;28;20576;-86
2022/04/29 08:33:45;;;;;;;1.08;1.00;;;19.10;40.30;;;;;;5001377;28;20173;-84
2022/04/29 08:36:12;;;;;;;1.00;0.90;;;19.00;41.10;;;;;;5017230;28;20265;-84
2022/04/29 08:38:38;;;;;;;1.48;1.00;;;19.00;40.40;;;;;;5017432;28;20167;-87
2022/04/29 08:41:06;;;;;;;1.17;1.08;;;19.10;40.70;;;;;;5001199;28;20568;-82
2022/04/29 08:43:32;;;;;;;0.70;0.70;;;19.00;40.00;;;;;;5017783;28;20184;-87
2022/04/29 08:45:57;;;;;;;1.38;1.08;;;19.10;40.70;;;;;;5001175;28;20201;-86
2022/04/29 08:48:23;;;;;;;1.30;1.00;;;19.00;40.90;;;;;;5000895;28;20216;-86
2022/04/29 08:50:49;;;;;;;0.80;0.80;;;19.00;40.80;;;;;;5016895;28;20170;-85
2022/04/29 08:53:17;;;;;;;1.15;0.90;;;19.00;40.80;;;;;;5052767;28;20587;-83
2022/04/29 09:01:04;;;;;;;1.50;0.98;;;19.00;41.10;;;;;;5075314;28;20175;-83
2022/04/29 09:03:30;;;;;;;1.02;0.93;;;18.90;40.70;;;;;;5057491;28;20217;-83
2022/04/29 09:05:56;;;;;;;0.70;0.65;;;19.00;40.30;;;;;;5057482;28;20154;-85
2022/04/29 09:08:22;;;;;;;1.10;1.00;;;19.10;40.30;;;;;;5040833;28;20295;-85
2022/04/29 09:10:54;;;;;;;1.00;0.80;;;19.00;40.60;;;;;;5057393;28;20180;-84
2022/04/29 09:13:24;;;;;;;1.25;1.00;;;19.00;40.80;;;;;;5041429;28;20162;-85
2022/04/29 09:15:57;;;;;;;1.48;1.00;;;19.00;40.60;;;;;;5057743;28;20162;-83
2022/04/29 09:18:39;;;;;;;0.93;0.88;;;19.00;40.70;;;;;;5074102;28;20627;-84
2022/04/29 09:21:07;;;;;;;1.10;1.00;;;19.10;41.20;;;;;;5056171;28;20149;-86
2022/04/29 09:23:36;;;;;;;0.90;0.90;;;19.10;40.40;;;;;;5056755;28;20608;-84
2022/04/29 09:26:05;;;;;;;1.90;0.90;;;19.00;40.70;;;;;;5074369;28;20165;-87
2022/04/29 09:28:36;;;;;;;0.70;0.70;;;19.10;40.50;;;;;;5057082;28;20150;-82
2022/04/29 09:31:08;;;;;;;0.80;0.80;;;19.00;40.50;;;;;;5006385;28;20192;-82
2022/04/29 09:33:38;;;;;;;0.93;0.90;;;19.00;40.50;;;;;;5022289;28;20593;-84
2022/04/29 09:36:08;;;;;;;0.88;0.82;;;19.10;40.50;;;;;;5006146;28;20173;-85
2022/04/29 09:41:36;;;;;;;0.80;0.80;;;19.00;39.80;;;;;;5021501;28;20244;-83
2022/04/29 09:44:05;;;;;;;0.93;0.90;;;19.10;40.20;;;;;;5024100;28;20181;-85
2022/04/29 09:46:37;;;;;;;1.10;0.88;;;19.10;40.00;;;;;;5006895;28;20185;-85
2022/04/29 09:49:10;;;;;;;1.25;0.90;;;19.10;40.10;;;;;;5007552;28;20276;-85
2022/04/29 09:51:49;;;;;;;1.00;0.80;;;19.20;39.60;;;;;;5007007;28;20185;-86
2022/04/29 09:54:23;;;;;;;1.65;1.08;;;19.20;39.40;;;;;;5023190;28;20185;-86
2022/04/29 09:57:10;;;;;;;0.70;0.70;;;19.20;39.90;;;;;;5040744;28;20183;-85
2022/04/29 09:59:46;;;;;;;1.25;0.68;;;19.20;39.70;;;;;;5057723;28;20185;-85
2022/04/29 10:02:13;;;;;;;1.60;0.98;;;19.10;39.90;;;;;;5041756;28;20210;-87
2022/04/29 10:04:44;;;;;;;1.73;0.80;;;19.20;39.80;;;;;;5037888;28;20177;-85
2022/04/29 10:07:15;;;;;;;1.05;0.95;;;19.10;40.30;;;;;;5036274;28;20184;-83
2022/04/29 10:09:45;;;;;;;1.40;0.90;;;19.10;39.70;;;;;;5023174;28;20217;-84
2022/04/29 10:12:16;;;;;;;1.00;0.90;;;19.10;40.00;;;;;;5023826;28;20185;-86
2022/04/29 10:14:44;;;;;;;1.30;0.93;;;19.10;40.00;;;;;;5056118;28;20220;-87
2022/04/29 10:22:42;;;;;;;2.85;0.95;;;19.10;39.90;;;;;;5045666;28;20158;-83
2022/04/29 10:25:08;;;;;;;1.02;0.70;;;19.10;40.40;;;;;;5056104;28;20158;-85
2022/04/29 10:27:36;;;;;;;1.67;0.82;;;19.10;40.00;;;;;;5038979;28;20164;-86
2022/04/29 10:30:02;;;;;;;1.98;0.73;;;19.10;39.90;;;;;;5038416;28;20161;-85
2022/04/29 10:32:27;;;;;;;0.80;0.80;;;19.10;39.80;;;;;;5038260;28;20173;-86
2022/04/29 10:34:55;;;;;;;1.13;0.90;;;19.10;39.90;;;;;;5054800;28;20161;-87
2022/04/29 10:37:31;;;;;;;0.80;0.80;;;19.10;39.70;;;;;;5073072;28;20157;-82
2022/04/29 10:40:08;;;;;;;1.10;0.95;;;19.20;39.30;;;;;;5072887;28;20181;-83
2022/04/29 10:43:03;;;;;;;1.17;1.00;;;19.20;39.70;;;;;;5073991;28;20232;-84
2022/04/29 10:45:29;;;;;;;1.00;0.90;;;19.10;39.60;;;;;;5048909;28;20158;-84
2022/04/29 10:47:58;;;;;;;1.42;0.80;;;19.10;39.30;;;;;;5045037;28;20161;-85
2022/04/29 10:50:40;;;;;;;0.70;0.70;;;19.10;39.80;;;;;;5028236;28;20208;-87
2022/04/29 10:53:10;;;;;;;0.82;0.80;;;19.10;39.60;;;;;;5060683;28;20189;-85
2022/04/29 10:55:38;;;;;;;1.48;0.77;;;19.10;38.90;;;;;;5044485;28;20211;-86
2022/04/29 10:58:17;;;;;;;0.88;0.82;;;19.10;39.20;;;;;;5046564;28;20196;-84
2022/04/29 11:00:56;;;;;;;0.95;0.70;;;19.10;38.70;;;;;;5065639;28;20231;-83
2022/04/29 11:03:37;;;;;;;1.65;1.00;;;19.10;39.10;;;;;;5046987;28;20232;-82
2022/04/29 11:06:10;;;;;;;0.95;0.90;;;19.10;39.20;;;;;;5064998;28;20170;-83
2022/04/29 11:08:42;;;;;;;2.15;0.80;;;19.10;38.90;;;;;;5032308;28;20189;-87
2022/04/29 11:11:12;;;;;;;0.93;0.82;;;19.20;39.10;;;;;;5062088;28;20181;-85
2022/04/29 11:13:47;;;;;;;1.73;0.90;;;19.10;38.80;;;;;;5045154;28;20188;-85
2022/04/29 11:16:19;;;;;;;1.13;0.80;;;19.10;39.50;;;;;;5057127;28;20183;-86
2022/04/29 11:19:11;;;;;;;1.85;1.20;;;19.10;39.20;;;;;;5029537;28;20185;-83
2022/04/29 11:24:42;;;;;;;1.27;0.90;;;19.10;39.40;;;;;;5079063;28;20636;-86
2022/04/29 11:27:09;;;;;;;0.93;0.70;;;19.10;39.30;;;;;;5050262;28;20322;-86
2022/04/29 11:29:46;;;;;;;0.80;0.80;;;19.10;38.50;;;;;;5045194;28;20181;-84
2022/04/29 11:32:13;;;;;;;0.93;0.63;;;19.10;38.90;;;;;;5027219;28;20284;-85
2022/04/29 11:34:56;;;;;;;0.88;0.80;;;19.10;39.20;;;;;;5063999;28;20291;-85
2022/04/29 11:37:33;;;;;;;0.70;0.70;;;19.10;39.10;;;;;;5033941;28;20165;-86
2022/04/29 11:40:11;;;;;;;0.98;0.88;;;19.00;39.10;;;;;;5029756;28;20228;-84
2022/04/29 11:42:55;;;;;;;1.05;0.98;;;19.10;39.80;;;;;;5045575;28;20188;-86
2022/04/29 11:45:25;;;;;;;1.23;0.82;;;19.10;39.20;;;;;;4997526;28;20212;-86
2022/04/29 11:48:00;;;;;;;2.67;0.80;;;19.10;38.90;;;;;;5044466;28;20187;-86
2022/04/29 11:50:36;;;;;;;1.20;0.90;;;19.20;38.90;;;;;;5060555;28;20684;-85
2022/04/29 11:53:07;;;;;;;1.33;0.90;;;19.20;39.60;;;;;;5022988;28;20184;-86
2022/04/29 11:55:37;;;;;;;0.73;0.73;;;19.10;39.30;;;;;;5006617;28;20185;-86
2022/04/29 11:58:07;;;;;;;1.10;0.77;;;19.10;39.00;;;;;;5023182;28;20204;-86
2022/04/29 12:00:37;;;;;;;0.95;0.70;;;19.10;39.10;;;;;;5022624;28;20213;-88
2022/04/29 12:03:04;;;;;;;0.90;0.73;;;19.10;39.40;;;;;;5006996;28;20280;-85
2022/04/29 12:05:33;;;;;;;1.23;0.90;;;19.10;39.20;;;;;;5042318;28;20637;-85
2022/04/29 12:08:03;;;;;;;2.53;0.80;;;19.10;39.60;;;;;;5008689;28;20177;-87
2022/04/29 12:10:33;;;;;;;0.85;0.82;;;19.10;39.40;;;;;;5041610;28;20181;-86
2022/04/29 12:13:03;;;;;;;0.70;0.70;;;19.10;39.20;;;;;;5008334;28;20184;-87
2022/04/29 12:15:35;;;;;;;0.80;0.80;;;19.20;39.20;;;;;;5024190;28;20177;-85
2022/04/29 12:18:08;;;;;;;0.90;0.80;;;19.10;39.30;;;;;;5024681;28;20177;-86
2022/04/29 12:20:38;;;;;;;1.38;0.98;;;19.10;39.30;;;;;;5009354;28;20285;-86
2022/04/29 12:23:19;;;;;;;1.15;0.90;;;19.10;38.90;;;;;;5025409;28;20185;-85
2022/04/29 12:25:48;;;;;;;1.08;0.90;;;19.10;39.20;;;;;;5059392;28;20176;-85
2022/04/29 12:28:20;;;;;;;0.70;0.70;;;19.20;38.90;;;;;;5026680;28;20264;-85
2022/04/29 12:36:23;;;;;;;1.80;0.85;;;19.20;39.70;;;;;;5044593;28;20169;-84
2022/04/29 12:38:51;;;;;;;0.73;0.73;;;19.10;39.50;;;;;;5076132;28;20181;-86
2022/04/29 12:41:25;;;;;;;1.00;0.90;;;19.10;39.10;;;;;;5014455;28;20576;-86
2022/04/29 12:43:53;;;;;;;1.05;0.75;;;19.10;39.40;;;;;;4982003;28;20209;-87
2022/04/29 12:46:23;;;;;;;1.42;0.90;;;19.20;39.20;;;;;;5014786;28;20183;-87
2022/04/29 12:48:56;;;;;;;0.73;0.70;;;19.20;39.10;;;;;;4975837;28;20569;-88
2022/04/29 12:51:38;;;;;;;;;;;;;;;;;;;;;
2022/04/29 12:54:05;;;;;;;0.90;0.90;;;19.20;39.00;;;;;;4965497;28;20185;-86
2022/04/29 12:56:34;;;;;;;1.10;0.90;;;19.20;39.20;;;;;;4960117;28;20191;-84
2022/04/29 12:59:02;;;;;;;1.20;0.80;;;19.20;39.20;;;;;;4959243;28;20212;-85
2022/04/29 13:01:36;;;;;;;0.90;0.70;;;19.20;38.80;;;;;;4959494;28;20187;-86
2022/04/29 13:04:05;;;;;;;0.88;0.88;;;19.20;40.00;;;;;;4946761;29;20603;-85
2022/04/29 13:06:34;;;;;;;1.95;0.80;;;19.20;38.70;;;;;;4924098;29;20193;-88
2022/04/29 13:09:01;;;;;;;0.95;0.82;;;19.20;39.00;;;;;;4939715;29;20211;-86
2022/04/29 13:11:26;;;;;;;0.80;0.80;;;19.20;39.20;;;;;;4941981;29;20181;-84
2022/04/29 13:13:54;;;;;;;1.08;0.85;;;19.20;39.20;;;;;;4947015;29;20190;-83
2022/04/29 13:16:23;;;;;;;1.15;0.93;;;19.20;39.30;;;;;;4923454;29;20192;-86
2022/04/29 13:18:49;;;;;;;1.67;0.70;;;19.20;39.30;;;;;;4908059;29;20226;-84
2022/04/29 13:21:15;;;;;;;2.97;1.25;;;19.10;38.90;;;;;;4959549;29;20160;-86
2022/04/29 13:23:42;;;;;;;2.13;1.05;;;19.10;39.20;;;;;;4956512;29;20185;-87
2022/04/29 13:26:08;;;;;;;1.02;0.90;;;19.10;39.00;;;;;;4955684;29;20237;-87
2022/04/29 13:28:35;;;;;;;1.98;0.95;;;19.10;39.20;;;;;;4940090;29;20182;-85
2022/04/29 13:31:01;;;;;;;1.02;0.93;;;19.20;39.30;;;;;;4924609;29;20173;-83